Tiempo atmosférico en la estación meteorológica de Cieza, Murcia (265 m.)



Fecha
DESCASC
Temp. máxima en grados centígrados (hora)
DESCASC
Temp. mínima en grados centígrados (hora)
DESCASC
Temp. media en grados centígrados
DESCASC
Racha de viento máxima en m/sg (hora)
DESCASC
Velocidad máxima media en intervalos de 10 minutos(hora)
DESCASC
Precipitaciones diarias en mm
DESCASC
Precipitaciones de 00:00 a 06:00 en mm
DESCASC
Precipitaciones de 06:00 a 12:00 en mm
DESCASC
Precipitaciones de 12:00 a 18:00 en mm
DESCASC
Precipitaciones de 18:00 a 24:00 en mm
DESCASC
25-01-2020 11 (16:50) 6.2 (07:40) 8.6 3.89 (11:00) 2.78 (09:20) 0.2 0 0 0.2 0
24-01-2020 10.2 (14:30) 5.6 (05:40) 7.9 4.44 (11:50) 3.33 (14:50) 0.1 0 0 0 0.1
23-01-2020 13.7 (15:00) 3.1 (04:40) 8.4 7.78 (18:10) 4.72 (18:10) 0.1 0.1 0 0 0
22-01-2020 13.4 (14:40) 4.9 (00:00) 9.1 5 (11:00) 3.61 (12:20) 14.2 13.1 0.5 0.6 0
21-01-2020 8 (15:10) 5.6 (00:00) 6.8 11.39 (04:00) 6.67 (04:00) 35.2 5.3 17.3 10 2.6
20-01-2020 -- (--) -- (--) -- -- (--) -- (--) 8.8 0.1 2.6 0.1 6
19-01-2020 11.6 (12:50) 4.7 (00:00) 8.2 16.11 (18:30) 10 (18:10) 0.8 0 0 0.2 0.6
18-01-2020 14.2 (17:10) 5.4 (00:00) 9.8 5.56 (04:20) 3.89 (04:10) 0 0 0 0 0
17-01-2020 17.9 (15:30) 1.2 (00:00) 9.5 8.61 (15:00) 4.72 (15:00) 0 0 0 0 0
16-01-2020 18 (16:20) 1.3 (00:00) 9.6 5.83 (10:20) 4.72 (08:00) 0 0 0 0 0
15-01-2020 16.4 (16:50) 0.2 (00:00) 8.3 5.28 (06:30) 4.17 (06:20) 0 0 0 0 0
14-01-2020 15 (16:30) -0.2 (00:00) 7.4 5.83 (08:20) 4.44 (08:30) 0 0 0 0 0
13-01-2020 14.3 (17:00) -1.8 (-00:0) 6.3 5.56 (10:50) 4.17 (12:00) 0 0 0 0 0
12-01-2020 15.9 (16:00) -0.5 (-00:0) 7.7 5.83 (16:10) 3.33 (08:40) 0 0 0 0 0
11-01-2020 15.7 (16:40) 4.1 (00:00) 9.9 6.94 (05:00) 4.72 (05:20) 0 0 0 0 0
10-01-2020 15.3 (15:20) 2.2 (00:00) 8.8 9.44 (20:20) 5.56 (20:10) 0 0 0 0 0
09-01-2020 14.8 (16:20) 2.9 (00:00) 8.9 5.28 (08:50) 3.89 (08:50) 0 0 0 0 0
08-01-2020 15.2 (14:30) -0.4 (00:00) 7.4 8.06 (16:40) 5.56 (16:50) 0 0 0 0 0
07-01-2020 15.9 (15:50) -0.8 (-00:0) 7.5 5 (17:40) 3.33 (06:10) 0 0 0 0 0
06-01-2020 14.7 (15:40) -0.3 (00:00) 7.2 5 (17:50) 3.89 (06:50) 0 0 0 0 0
05-01-2020 15.2 (17:40) 0.6 (00:00) 7.9 5.28 (12:10) 4.17 (13:00) 0 0 0 0 0
04-01-2020 14.4 (16:40) 1 (00:00) 7.7 6.39 (00:20) 4.17 (00:30) 0 0 0 0 0
03-01-2020 17 (16:40) 1.5 (00:00) 9.3 7.5 (22:10) 5.28 (21:50) 0 0 0 0 0
02-01-2020 8.3 (17:30) 4.8 (00:00) 6.6 4.17 (23:00) 2.78 (06:00) 0 0 0 0 0
01-01-2020 14.1 (16:30) 1.8 (00:00) 8 4.44 (19:00) 3.33 (19:00) 0 0 0 0 0
31-12-2019 11.4 (17:10) 2.2 (00:00) 6.8 4.72 (06:00) 3.33 (06:10) 0 0 0 0 0
30-12-2019 14.6 (16:30) 2 (00:00) 8.3 4.72 (18:00) 3.06 (03:20) 0 0 0 0 0
29-12-2019 15.5 (16:20) 5.3 (00:00) 10.4 4.72 (19:40) 3.33 (19:40) 0 0 0 0 0
28-12-2019 16.1 (15:00) 1.3 (00:00) 8.7 7.22 (15:40) 4.44 (16:40) 0 0 0 0 0

Gráficas

Temp. máximas Temp. mínimas Temp. medias Precipitaciones Rachas de viento máximas Velocidades máximas media en intervalos de 10 minutos

Datos horarios

Fecha y hora oficial Temperatura (ºC) Velocidad del viento (km/h) Dirección del viento Racha (km/h) Dirección de racha Precipitación (mm) Presión (hPa) Tendencia (hPa) Humedad (%)
2020-01-26 23:00:00 6.5 5 Oeste 11 Noroeste 0 -- -- 74
2020-01-26 22:00:00 7.7 6 Oeste 15 Oeste 0 -- -- 70
2020-01-26 21:00:00 9.2 9 Oeste 15 Oeste 0 -- -- 65
2020-01-26 20:00:00 8.9 3 Noroeste 10 Oeste 0 -- -- 61
2020-01-26 19:00:00 11.2 6 Oeste 12 Noroeste 0 -- -- 52
2020-01-26 18:00:00 13.5 9 Noroeste 21 Oeste 0 -- -- 46
2020-01-26 17:00:00 14.9 12 Noroeste 30 Oeste 0 -- -- 45
2020-01-26 16:00:00 15.7 10 Noroeste 20 Noroeste 0 -- -- 45
2020-01-26 15:00:00 14.8 13 Noroeste 27 Noroeste 0 -- -- 44
2020-01-26 14:00:00 15.4 12 Oeste 24 Oeste 0 -- -- 45
2020-01-26 13:00:00 14.1 14 Noroeste 24 Oeste 0 -- -- 50
2020-01-26 12:00:00 12.8 10 Oeste 15 Oeste 0 -- -- 60
2020-01-26 11:00:00 10.5 11 Oeste 16 Oeste 0 -- -- 73
2020-01-26 10:00:00 7.6 9 Oeste 13 Oeste 0 -- -- 86
2020-01-26 09:00:00 5.7 6 Oeste 9 Oeste 0 -- -- 94
2020-01-26 08:00:00 4.5 3 Oeste 5 Oeste 0 -- -- 94
2020-01-26 07:00:00 5.2 4 Oeste 11 Oeste 0 -- -- 94
2020-01-26 06:00:00 6.1 8 Oeste 10 Oeste 0 -- -- 94
2020-01-26 05:00:00 6.7 8 Oeste 10 Oeste 0 -- -- 94
2020-01-26 04:00:00 6.8 6 Oeste 10 Oeste 0 -- -- 95
2020-01-26 03:00:00 6.9 7 Oeste 11 Oeste 0.1 -- -- 95
2020-01-26 02:00:00 7.3 5 Oeste 9 Oeste 0 -- -- 94
2020-01-26 01:00:00 7.9 7 Oeste 11 Oeste 0 -- -- 94
2020-01-26 00:00:00 8.2 6 Oeste 9 Oeste 0 -- -- 94
2020-01-25 23:00:00 8.5 5 Oeste 9 Oeste 0 -- -- 93
2020-01-25 22:00:00 8.7 4 Oeste 9 Oeste 0 -- -- 93
2020-01-25 21:00:00 8.7 0 Calma 6 Noroeste 0 -- -- 91
2020-01-25 20:00:00 9.2 0 Calma 5 Este 0 -- -- 90
2020-01-25 19:00:00 8.9 0 Calma 7 Oeste 0 -- -- 89
2020-01-25 18:00:00 10.3 3 Oeste 8 Sudoeste 0 -- -- 87
2020-01-25 17:00:00 10.7 7 Sudoeste 10 Sudoeste 0 -- -- 83
2020-01-25 16:00:00 10.4 7 Oeste 11 Oeste 0.2 -- -- 84
2020-01-25 15:00:00 10.5 3 Sudoeste 9 Oeste 0 -- -- 81
2020-01-25 14:00:00 10.5 6 Noroeste 12 Oeste 0 -- -- 79
2020-01-25 13:00:00 10.5 8 Oeste 12 Oeste 0 -- -- 82
2020-01-25 12:00:00 9.8 5 Noroeste 13 Oeste 0 -- -- 84
2020-01-25 11:00:00 8.8 5 Sudoeste 14 Sudoeste 0 -- -- 90
2020-01-25 10:00:00 7.8 3 Oeste 13 Oeste 0 -- -- 93
2020-01-25 09:00:00 7 8 Oeste 11 Oeste 0 -- -- 95
2020-01-25 08:00:00 6.5 3 Sudoeste 5 Sudoeste 0 -- -- 94
2020-01-25 07:00:00 7.2 4 Oeste 8 Oeste 0 -- -- 94
2020-01-25 06:00:00 7.2 0 Calma 4 Sudoeste 0 -- -- 94
2020-01-25 05:00:00 7.7 0 Calma 5 Noroeste 0 -- -- 94
2020-01-25 04:00:00 7.5 3 Oeste 9 Oeste 0 -- -- 94
2020-01-25 03:00:00 7.5 5 Noroeste 10 Oeste 0 -- -- 94
2020-01-25 02:00:00 7 0 Calma 4 Este 0 -- -- 93
2020-01-25 01:00:00 7.3 0 Calma -- -- 0 -- -- 93
2020-01-25 00:00:00 8.4 0 Calma -- -- 0 -- -- 91
2020-01-24 23:00:00 8.5 0 Calma 5 Este 0 -- -- 89
2020-01-24 22:00:00 8.7 3 Este 7 Este 0.1 -- -- 89
2020-01-24 21:00:00 9 5 Oeste 8 Noroeste 0 -- -- 85
2020-01-24 20:00:00 9.3 0 Calma 9 Oeste 0 -- -- 83
2020-01-24 19:00:00 9.3 0 Calma 9 Oeste 0 -- -- 82
2020-01-24 18:00:00 9.6 3 Oeste 12 Oeste 0 -- -- 81
2020-01-24 17:00:00 9.8 6 Noroeste 14 Noroeste 0 -- -- 79
2020-01-24 16:00:00 10 7 Noroeste 14 Oeste 0 -- -- 74
2020-01-24 15:00:00 9.9 11 Oeste 16 Oeste 0 -- -- 76
2020-01-24 14:00:00 9.6 4 Noroeste 14 Oeste 0 -- -- 77
2020-01-24 13:00:00 8.7 9 Oeste 15 Oeste 0 -- -- 81
2020-01-24 12:00:00 7.9 10 Oeste 16 Noroeste 0 -- -- 83
2020-01-24 11:00:00 7.4 10 Oeste 14 Oeste 0 -- -- 84
2020-01-24 10:00:00 7 7 Oeste 12 Oeste 0 -- -- 86
2020-01-24 09:00:00 6.5 7 Oeste 10 Oeste 0 -- -- 88
2020-01-24 08:00:00 6.3 6 Oeste 12 Oeste 0 -- -- 89
2020-01-24 07:00:00 5.9 3 Noroeste 12 Oeste 0 -- -- 90
2020-01-24 06:00:00 5.8 4 Oeste 13 Oeste 0 -- -- 90
2020-01-24 05:00:00 6.1 7 Oeste 10 Oeste 0 -- -- 90
2020-01-24 04:00:00 6.2 2 Noroeste 6 Oeste 0 -- -- 90
2020-01-24 03:00:00 6.7 0 Calma 10 Oeste 0 -- -- 89
2020-01-24 02:00:00 6.5 5 Oeste 8 Oeste 0 -- -- 90
2020-01-24 01:00:00 7.5 0 Calma 5 Noroeste 0 -- -- 87
2020-01-24 00:00:00 7.2 0 Calma 9 Nordeste 0 -- -- 87
2020-01-23 23:00:00 7.2 2 Nordeste 8 Nordeste 0 -- -- 88
2020-01-23 22:00:00 7.3 0 Calma 11 Sudeste 0 -- -- 87
2020-01-23 21:00:00 9.4 9 Sudeste 25 Sudeste 0 -- -- 84
2020-01-23 20:00:00 10.4 16 Sudeste 26 Sudeste 0 -- -- 84
2020-01-23 19:00:00 10.6 14 Sudeste 28 Este 0 -- -- 85
2020-01-23 18:00:00 11.4 15 Sudeste 25 Sudeste 0 -- -- 78
2020-01-23 17:00:00 12.2 13 Sudeste 24 Este 0 -- -- 70
2020-01-23 16:00:00 12.7 12 Sudeste 22 Sudeste 0 -- -- 63
2020-01-23 15:00:00 13.1 12 Sudeste 21 Este 0 -- -- 63
2020-01-23 14:00:00 12.7 8 Sudeste 14 Sudeste 0 -- -- 67
2020-01-23 13:00:00 10.3 6 Oeste 12 Oeste 0 -- -- 73
2020-01-23 12:00:00 8.4 9 Oeste 13 Oeste 0 -- -- 79
2020-01-23 11:00:00 6.8 10 Oeste 15 Oeste 0 -- -- 85
2020-01-23 10:00:00 4.8 7 Oeste 12 Oeste 0 -- -- 91
2020-01-23 09:00:00 4.1 6 Oeste 10 Noroeste 0 -- -- 94
2020-01-23 08:00:00 3.6 8 Oeste 11 Oeste 0 -- -- 93
2020-01-23 07:00:00 3.9 8 Oeste 11 Oeste 0 -- -- 94
2020-01-23 06:00:00 3.8 9 Oeste 13 Oeste 0 -- -- 94
2020-01-23 05:00:00 3.1 10 Oeste 13 Oeste 0 -- -- 94
2020-01-23 04:00:00 4.2 0 Calma 11 Oeste 0.1 -- -- 93
2020-01-23 03:00:00 4.6 8 Oeste 10 Oeste 0 -- -- 93
2020-01-23 02:00:00 4.6 9 Oeste 12 Oeste 0 -- -- 94
2020-01-23 01:00:00 5.1 6 Oeste 8 Oeste 0 -- -- 93
2020-01-23 00:00:00 5.6 0 Calma 10 Oeste 0 -- -- 93
2020-01-22 23:00:00 5.8 3 Oeste 7 Oeste 0 -- -- 91
2020-01-22 22:00:00 6 0 Calma 3 Nordeste 0 -- -- 89
2020-01-22 21:00:00 6.6 0 Calma 6 Oeste 0 -- -- 87
2020-01-22 20:00:00 8.1 5 Oeste 7 Oeste 0 -- -- 84
2020-01-22 19:00:00 9.2 5 Oeste 7 Oeste 0 -- -- 78
2020-01-22 18:00:00 10.5 5 Oeste 10 Oeste 0.1 -- -- 77
2020-01-22 17:00:00 11.5 6 Oeste 12 Oeste 0 -- -- 71
2020-01-22 16:00:00 11.4 8 Oeste 15 Oeste 0.5 -- -- 74
2020-01-22 15:00:00 12.9 4 Noroeste 12 Oeste 0 -- -- 57
2020-01-22 14:00:00 11.7 9 Oeste 15 Oeste 0 -- -- 65
2020-01-22 13:00:00 11.3 12 Oeste 17 Oeste 0 -- -- 69
2020-01-22 12:00:00 10.8 11 Oeste 18 Oeste 0 -- -- 72
2020-01-22 11:00:00 8.5 13 Oeste 18 Oeste 0 -- -- 86
2020-01-22 10:00:00 6.6 8 Oeste 17 Oeste 0 -- -- 95
2020-01-22 09:00:00 5.6 3 Oeste 8 Oeste 0 -- -- 94
2020-01-22 08:00:00 6 4 Oeste 9 Oeste 0.5 -- -- 95
2020-01-22 07:00:00 6 5 Oeste 12 Oeste 0 -- -- 95
2020-01-22 06:00:00 6.1 9 Oeste 14 Oeste 0 -- -- 95
2020-01-22 05:00:00 6.1 9 Oeste 12 Oeste 0 -- -- 95
2020-01-22 04:00:00 6.3 6 Oeste 13 Sudoeste 6.5 -- -- 95
2020-01-22 03:00:00 6.4 0 Calma 6 Oeste 1.1 -- -- 95
2020-01-22 02:00:00 6.4 3 Oeste 11 Oeste 1 -- -- 95
2020-01-22 01:00:00 6.3 8 Oeste 13 Oeste 4.5 -- -- 95
2020-01-22 00:00:00 6.4 11 Oeste 17 Oeste 1.9 -- -- 94
2020-01-21 23:00:00 6.5 6 Oeste 8 Oeste 0.3 -- -- 93
2020-01-21 22:00:00 6.6 5 Oeste 7 Oeste 0.2 -- -- 91
2020-01-21 21:00:00 6.9 3 Oeste 6 Oeste 0.2 -- -- 88
2020-01-21 20:00:00 6.9 0 Calma 6 Noroeste 0 -- -- 88
2020-01-21 19:00:00 7.3 4 Noroeste 14 Noroeste 0 -- -- 86
2020-01-21 18:00:00 7.4 8 Noroeste 14 Noroeste 0 -- -- 88
2020-01-21 17:00:00 7.6 7 Noroeste 14 Noroeste 0 -- -- 90
2020-01-21 16:00:00 7.8 7 Noroeste 19 Noroeste 0 -- -- 90
2020-01-21 15:00:00 7.4 14 Oeste 22 Oeste 1.4 -- -- 95
2020-01-21 14:00:00 6.2 8 Oeste 19 Oeste 6.2 -- -- 96
2020-01-21 13:00:00 6.2 10 Noroeste 23 Oeste 2.4 -- -- 96
2020-01-21 12:00:00 6.2 2 Noroeste 26 Sudoeste 5.7 -- -- 95
2020-01-21 11:00:00 5.9 7 Oeste 26 Oeste 4 -- -- 96
2020-01-21 10:00:00 5.7 14 Oeste 28 Oeste 2.6 -- -- 96
2020-01-21 09:00:00 6.1 11 Oeste 22 Oeste 0.8 -- -- 95
2020-01-21 08:00:00 6.6 9 Nordeste 26 Nordeste 1.8 -- -- 90
2020-01-21 07:00:00 6.5 15 Nordeste 27 Norte 2.4 -- -- 91
2020-01-21 06:00:00 6.4 8 Nordeste 35 Nordeste 1.5 -- -- 89
2020-01-21 05:00:00 6.4 6 Noroeste 37 Norte 0.1 -- -- 84
2020-01-21 04:00:00 6.6 24 Norte 41 Norte 3.5 -- -- 85
2020-01-21 03:00:00 6.3 11 Noroeste 28 Norte 0.2 -- -- 88
2020-01-21 02:00:00 6.2 7 Noroeste 23 Norte 0 -- -- 86
2020-01-21 01:00:00 6.3 15 Norte 27 Norte 0 -- -- 86
2020-01-21 00:00:00 6 12 Norte 18 Norte 0.4 -- -- 91
2020-01-20 23:00:00 5.8 5 Noroeste 17 Norte 0.7 -- -- 92
2020-01-20 22:00:00 5.5 5 Noroeste 19 Norte 1.4 -- -- 94
2020-01-20 21:00:00 5.9 10 Norte 26 Nordeste 1 -- -- 90
2020-01-20 20:00:00 5.5 11 Nordeste 21 Nordeste 2.5 -- -- 88
2020-01-20 19:00:00 6.6 3 Sudeste 35 Nordeste 0 -- -- 78
2020-01-20 18:00:00 6 23 Nordeste 41 Nordeste 0 -- -- 79
2020-01-20 17:00:00 5.9 27 Nordeste 44 Nordeste 0.1 -- -- 82
2020-01-20 16:00:00 6.3 27 Nordeste 48 Nordeste 0 -- -- 78
2020-01-20 15:00:00 5.9 24 Nordeste 40 Nordeste 0 -- -- 79
2020-01-20 14:00:00 6.1 19 Nordeste 35 Nordeste 0 -- -- 80
2020-01-20 13:00:00 5.4 2 Oeste 23 Norte 0 -- -- 84
2020-01-20 12:00:00 4.8 5 Noroeste 19 Oeste 0.4 -- -- 85
2020-01-20 11:00:00 3.6 10 Norte 29 Norte 2.2 -- -- 85
2020-01-20 10:00:00 3.7 -- -- -- -- -- -- -- 77
2020-01-20 09:00:00 -- -- -- -- -- -- -- -- --
2020-01-20 08:00:00 4.1 30 Norte 50 Nordeste 0 -- -- 73
2020-01-20 07:00:00 5 13 Norte 37 Norte 0 -- -- 69
2020-01-20 06:00:00 5.3 16 Norte 36 Norte 0 -- -- 69
2020-01-20 05:00:00 5.1 21 Norte 46 Norte 0 -- -- 72
2020-01-20 04:00:00 5.3 15 Norte 43 Norte 0 -- -- 73
2020-01-20 03:00:00 5.7 21 Norte 47 Norte 0 -- -- 73
2020-01-20 02:00:00 5.4 9 Noroeste 47 Norte 0.1 -- -- 77
2020-01-20 01:00:00 5.4 12 Noroeste 39 Norte 0 -- -- 79
2020-01-20 00:00:00 5.8 26 Norte 45 Norte 0 -- -- 77
2020-01-19 23:00:00 5.8 11 Noroeste 41 Norte 0 -- -- 76
2020-01-19 22:00:00 6.4 18 Norte 40 Norte 0 -- -- 74
2020-01-19 21:00:00 5.9 31 Norte 53 Nordeste 0.3 -- -- 76
2020-01-19 20:00:00 5.1 25 Norte 53 Norte 0.3 -- -- 78
2020-01-19 19:00:00 5.2 31 Norte 58 Norte 0 -- -- 74
2020-01-19 18:00:00 5.7 29 Norte 53 Norte 0.1 -- -- 73
2020-01-19 17:00:00 6.6 11 Noroeste 37 Norte 0.1 -- -- 81
2020-01-19 16:00:00 9 11 Noroeste 31 Noroeste 0 -- -- 68
2020-01-19 15:00:00 8.3 12 Noroeste 28 Norte 0 -- -- 73
2020-01-19 14:00:00 9.9 12 Noroeste 29 Norte 0 -- -- 68
2020-01-19 13:00:00 10.6 15 Noroeste 32 Norte 0 -- -- 60
2020-01-19 12:00:00 10.6 12 Noroeste 26 Norte 0 -- -- 63
2020-01-19 11:00:00 8.2 8 Noroeste 22 Noroeste 0 -- -- 76
2020-01-19 10:00:00 7.8 6 Noroeste 21 Noroeste 0 -- -- 78
2020-01-19 09:00:00 6.8 8 Noroeste 24 Noroeste 0 -- -- 82
2020-01-19 08:00:00 7 17 Noroeste 31 Oeste 0 -- -- 81
2020-01-19 07:00:00 7 13 Oeste 31 Oeste 0 -- -- 83
2020-01-19 06:00:00 7.7 6 Noroeste 15 Noroeste 0 -- -- 90
2020-01-19 05:00:00 7.2 3 Noroeste 17 Oeste 0 -- -- 87
2020-01-19 04:00:00 7.2 9 Oeste 18 Oeste 0 -- -- 89
2020-01-19 03:00:00 7.5 10 Oeste 17 Oeste 0 -- -- 87
2020-01-19 02:00:00 6.7 6 Oeste 14 Oeste 0 -- -- 89
2020-01-19 01:00:00 7.2 6 Oeste 12 Oeste 0 -- -- 88
2020-01-19 00:00:00 7.1 2 Este 7 Este 0 -- -- 84
2020-01-18 23:00:00 7.9 0 Calma 6 Sudeste 0 -- -- 82
2020-01-18 22:00:00 9.6 0 Calma 7 Sudeste 0 -- -- 78
2020-01-18 21:00:00 9.6 0 Calma 11 Sudeste 0 -- -- 77
2020-01-18 20:00:00 10 3 Sudeste 13 Sudeste 0 -- -- 76
2020-01-18 19:00:00 11.3 8 Sudeste 12 Sudeste 0 -- -- 71
2020-01-18 18:00:00 13 7 Sudeste 10 Sudeste 0 -- -- 65
2020-01-18 17:00:00 13.5 0 Calma 8 Sudoeste 0 -- -- 65
2020-01-18 16:00:00 12.1 5 Oeste 13 Oeste 0 -- -- 72
2020-01-18 15:00:00 10.4 10 Oeste 14 Oeste 0 -- -- 79
2020-01-18 14:00:00 9.7 8 Oeste 12 Noroeste 0 -- -- 82
2020-01-18 13:00:00 9.3 0 Calma 8 Noroeste 0 -- -- 83
2020-01-18 12:00:00 6.9 8 Oeste 17 Oeste 0 -- -- 87
2020-01-18 11:00:00 7.3 8 Oeste 13 Oeste 0 -- -- 79
2020-01-18 10:00:00 6.4 9 Oeste 19 Oeste 0 -- -- 82
2020-01-18 09:00:00 6.4 9 Oeste 15 Oeste 0 -- -- 82
2020-01-18 08:00:00 6.1 11 Oeste 16 Oeste 0 -- -- 83
2020-01-18 07:00:00 5.5 8 Oeste 10 Oeste 0 -- -- 84
2020-01-18 06:00:00 5.9 7 Oeste 10 Oeste 0 -- -- 79
2020-01-18 05:00:00 7.2 10 Oeste 20 Oeste 0 -- -- 76
2020-01-18 04:00:00 7 10 Oeste 14 Oeste 0 -- -- 77
2020-01-18 03:00:00 7.7 9 Oeste 17 Oeste 0 -- -- 73
2020-01-18 02:00:00 7.7 8 Oeste 15 Oeste 0 -- -- 72
2020-01-18 01:00:00 9.7 6 Oeste 10 Oeste 0 -- -- 66
2020-01-18 00:00:00 9.1 5 Oeste 13 Oeste 0 -- -- 66
2020-01-17 23:00:00 11.2 7 Oeste 16 Oeste 0 -- -- 60
2020-01-17 22:00:00 11.4 9 Oeste 18 Oeste 0 -- -- 60
2020-01-17 21:00:00 10.9 6 Oeste 11 Oeste 0 -- -- 60
2020-01-17 20:00:00 10.8 3 Oeste 10 Noroeste 0 -- -- 58
2020-01-17 19:00:00 12.7 5 Oeste 14 Noroeste 0 -- -- 51
2020-01-17 18:00:00 15.6 6 Noroeste 21 Noroeste 0 -- -- 45
2020-01-17 17:00:00 16.5 7 Noroeste 23 Norte 0 -- -- 44
2020-01-17 16:00:00 17.2 11 Noroeste 26 Noroeste 0 -- -- 42
2020-01-17 15:00:00 17.4 17 Oeste 31 Oeste 0 -- -- 42
2020-01-17 14:00:00 15.4 9 Sudoeste 14 Sudoeste 0 -- -- 45
2020-01-17 13:00:00 11.8 6 Oeste 13 Oeste 0 -- -- 56
2020-01-17 12:00:00 7.6 11 Oeste 17 Oeste 0 -- -- 68
2020-01-17 11:00:00 4.1 13 Oeste 21 Oeste 0 -- -- 79
2020-01-17 10:00:00 3.2 12 Oeste 21 Oeste 0 -- -- 83
2020-01-17 09:00:00 2.5 13 Oeste 20 Oeste 0 -- -- 86
2020-01-17 08:00:00 1.6 8 Oeste 19 Oeste 0 -- -- 89
2020-01-17 07:00:00 2.5 9 Oeste 15 Oeste 0 -- -- 87
2020-01-17 06:00:00 2.8 11 Oeste 18 Oeste 0 -- -- 85
2020-01-17 05:00:00 2.8 12 Oeste 18 Oeste 0 -- -- 85
2020-01-17 04:00:00 4.2 11 Oeste 14 Oeste 0 -- -- 82
2020-01-17 03:00:00 4.5 10 Oeste 15 Oeste 0 -- -- 82
2020-01-17 02:00:00 4.2 10 Oeste 15 Oeste 0 -- -- 82
2020-01-17 01:00:00 4.5 3 Oeste 9 Noroeste 0 -- -- 82
2020-01-17 00:00:00 6.1 6 Oeste 10 Oeste 0 -- -- 77
2020-01-16 23:00:00 6.7 8 Oeste 10 Oeste 0 -- -- 77
2020-01-16 22:00:00 6.6 0 Calma 9 Sudeste 0 -- -- 72
2020-01-16 21:00:00 8.7 4 Este 10 Sudeste 0 -- -- 63
2020-01-16 20:00:00 10.5 5 Este 14 Sudeste 0 -- -- 55
2020-01-16 19:00:00 13.4 8 Sudeste 14 Sudeste 0 -- -- 49
2020-01-16 18:00:00 16.2 9 Sudeste 16 Sudeste 0 -- -- 42
2020-01-16 17:00:00 17.7 5 Sudeste 12 Sudeste 0 -- -- 40
2020-01-16 16:00:00 17.7 2 Sudeste 9 Sudeste 0 -- -- 40
2020-01-16 15:00:00 16 5 Noroeste 13 Oeste 0 -- -- 42
2020-01-16 14:00:00 13.6 10 Oeste 17 Oeste 0 -- -- 45
2020-01-16 13:00:00 11.6 12 Oeste 21 Oeste 0 -- -- 49
2020-01-16 12:00:00 8.2 17 Oeste 21 Oeste 0 -- -- 60
2020-01-16 11:00:00 4.8 9 Oeste 21 Oeste 0 -- -- 76
2020-01-16 10:00:00 2.2 12 Oeste 18 Oeste 0 -- -- 83
2020-01-16 09:00:00 1.9 11 Oeste 20 Oeste 0 -- -- 84
2020-01-16 08:00:00 2.2 17 Oeste 21 Oeste 0 -- -- 84
2020-01-16 07:00:00 1.6 12 Oeste 18 Oeste 0 -- -- 87
2020-01-16 06:00:00 2.5 14 Oeste 19 Oeste 0 -- -- 85
2020-01-16 05:00:00 2.3 10 Oeste 18 Oeste 0 -- -- 87
2020-01-16 04:00:00 1.9 13 Oeste 17 Oeste 0 -- -- 87
2020-01-16 03:00:00 3 10 Oeste 17 Oeste 0 -- -- 84
2020-01-16 02:00:00 3.9 10 Oeste 14 Oeste 0 -- -- 82
2020-01-16 01:00:00 4 9 Oeste 13 Oeste 0 -- -- 82
2020-01-16 00:00:00 4.3 3 Oeste 8 Oeste 0 -- -- 81
2020-01-15 23:00:00 5 3 Oeste 8 Oeste 0 -- -- 77
2020-01-15 22:00:00 6.7 3 Oeste 8 Oeste 0 -- -- 72
2020-01-15 21:00:00 7.4 2 Oeste 8 Sudeste 0 -- -- 66
2020-01-15 20:00:00 10.4 7 Sudeste 10 Sudeste 0 -- -- 56
2020-01-15 19:00:00 11.5 8 Sudeste 11 Sudeste 0 -- -- 51
2020-01-15 18:00:00 15.1 8 Sudeste 11 Sudeste 0 -- -- 42
2020-01-15 17:00:00 16.4 5 Sudeste 10 Sudeste 0 -- -- 41
2020-01-15 16:00:00 15 0 Calma 7 Sudoeste 0 -- -- 44
2020-01-15 15:00:00 13.8 4 Oeste 9 Noroeste 0 -- -- 46
2020-01-15 14:00:00 11.3 6 Oeste 13 Oeste 0 -- -- 53
2020-01-15 13:00:00 8.1 10 Oeste 14 Oeste 0 -- -- 60
2020-01-15 12:00:00 5.2 7 Oeste 12 Oeste 0 -- -- 74
2020-01-15 11:00:00 2.4 7 Oeste 12 Oeste 0 -- -- 80
2020-01-15 10:00:00 0.9 9 Oeste 14 Noroeste 0 -- -- 85
2020-01-15 09:00:00 0.3 9 Oeste 14 Oeste 0 -- -- 86
2020-01-15 08:00:00 0.3 7 Oeste 12 Oeste 0 -- -- 86
2020-01-15 07:00:00 1.5 8 Oeste 19 Oeste 0 -- -- 83
2020-01-15 06:00:00 0.8 10 Oeste 14 Oeste 0 -- -- 84
2020-01-15 05:00:00 1.1 9 Oeste 17 Oeste 0 -- -- 83
2020-01-15 04:00:00 1.1 9 Oeste 13 Oeste 0 -- -- 83
2020-01-15 03:00:00 2.9 9 Oeste 15 Oeste 0 -- -- 77
2020-01-15 02:00:00 2.8 10 Oeste 13 Oeste 0 -- -- 77
2020-01-15 01:00:00 3.8 8 Oeste 12 Oeste 0 -- -- 72
2020-01-15 00:00:00 4.6 10 Oeste 13 Oeste 0 -- -- 69
2020-01-14 23:00:00 4.6 9 Oeste 11 Oeste 0 -- -- 69
2020-01-14 22:00:00 5 6 Oeste 8 Oeste 0 -- -- 67
2020-01-14 21:00:00 5 2 Oeste 7 Oeste 0 -- -- 63
2020-01-14 20:00:00 6.9 0 Calma 8 Sur 0 -- -- 53
2020-01-14 19:00:00 10.1 6 Sur 9 Sur 0 -- -- 45
2020-01-14 18:00:00 13.3 3 Oeste 10 Oeste 0 -- -- 39
2020-01-14 17:00:00 14.8 6 Oeste 10 Sudoeste 0 -- -- 36
2020-01-14 16:00:00 14.8 4 Oeste 13 Oeste 0 -- -- 37
2020-01-14 15:00:00 13 8 Oeste 15 Oeste 0 -- -- 44
2020-01-14 14:00:00 10.9 12 Oeste 18 Oeste 0 -- -- 46
2020-01-14 13:00:00 8.4 8 Oeste 15 Oeste 0 -- -- 52
2020-01-14 12:00:00 5.4 12 Oeste 19 Oeste 0 -- -- 63
2020-01-14 11:00:00 3 12 Oeste 20 Oeste 0 -- -- 69
2020-01-14 10:00:00 0.9 15 Oeste 19 Oeste 0 -- -- 77
2020-01-14 09:00:00 0.2 14 Oeste 21 Oeste 0 -- -- 79
2020-01-14 08:00:00 0.3 15 Oeste 19 Oeste 0 -- -- 82
2020-01-14 07:00:00 0.2 10 Oeste 16 Oeste 0 -- -- 83
2020-01-14 06:00:00 0.4 11 Oeste 17 Oeste 0 -- -- 83
2020-01-14 05:00:00 0.3 12 Oeste 19 Oeste 0 -- -- 85
2020-01-14 04:00:00 1.6 11 Oeste 16 Oeste 0 -- -- 83
2020-01-14 03:00:00 1.5 9 Oeste 12 Oeste 0 -- -- 84
2020-01-14 02:00:00 3.1 9 Oeste 14 Oeste 0 -- -- 78
2020-01-14 01:00:00 3.7 10 Oeste 13 Oeste 0 -- -- 77
2020-01-14 00:00:00 4.2 10 Oeste 12 Oeste 0 -- -- 76
2020-01-13 23:00:00 5.3 9 Oeste 13 Oeste 0 -- -- 72
2020-01-13 22:00:00 6 8 Oeste 10 Oeste 0 -- -- 69
2020-01-13 21:00:00 4.3 0 Calma 4 Oeste 0 -- -- 73
2020-01-13 20:00:00 6.5 0 Calma 4 Sur 0 -- -- 68
2020-01-13 19:00:00 8.5 0 Calma 8 Sudeste 0 -- -- 57
2020-01-13 18:00:00 12.3 0 Calma -- -- 0 -- -- 46
2020-01-13 17:00:00 14.1 2 Sudoeste 7 Sudoeste 0 -- -- 37
2020-01-13 16:00:00 13.4 4 Oeste 10 Sudoeste 0 -- -- 37
2020-01-13 15:00:00 12.2 6 Oeste 12 Oeste 0 -- -- 41
2020-01-13 14:00:00 10 9 Oeste 18 Oeste 0 -- -- 49
2020-01-13 13:00:00 7.1 13 Oeste 19 Oeste 0 -- -- 61
2020-01-13 12:00:00 4.3 15 Oeste 19 Oeste 0 -- -- 71
2020-01-13 11:00:00 1.6 13 Oeste 20 Oeste 0 -- -- 80
2020-01-13 10:00:00 -1 12 Oeste 19 Oeste 0 -- -- 89
2020-01-13 09:00:00 -1.5 12 Oeste 16 Oeste 0 -- -- 90
2020-01-13 08:00:00 -1.3 8 Oeste 13 Oeste 0 -- -- 91
2020-01-13 07:00:00 -1 9 Oeste 15 Oeste 0 -- -- 91
2020-01-13 06:00:00 -0.3 12 Oeste 16 Oeste 0 -- -- 90
2020-01-13 05:00:00 0.3 10 Oeste 13 Oeste 0 -- -- 89
2020-01-13 04:00:00 0.5 5 Noroeste 12 Oeste 0 -- -- 89
2020-01-13 03:00:00 1 4 Noroeste 8 Oeste 0 -- -- 89
2020-01-13 02:00:00 1.5 0 Calma 11 Oeste 0 -- -- 87
2020-01-13 01:00:00 2.7 5 Noroeste 6 Noroeste 0 -- -- 89
2020-01-13 00:00:00 3.1 0 Calma 3 Este 0 -- -- 89
2020-01-12 23:00:00 4.2 0 Calma 9 Sur 0 -- -- 89
2020-01-12 22:00:00 8.1 5 Sur 13 Sudeste 0 -- -- 84
2020-01-12 21:00:00 8 9 Sudeste 16 Sudeste 0 -- -- 79
2020-01-12 20:00:00 9.2 8 Sur 15 Sudeste 0 -- -- 71
2020-01-12 19:00:00 11 11 Sudeste 15 Sudeste 0 -- -- 58
2020-01-12 18:00:00 15.6 2 Norte 12 Norte 0 -- -- 31
2020-01-12 17:00:00 15.9 5 Noroeste 21 Norte 0 -- -- 30
2020-01-12 16:00:00 15.8 8 Noroeste 21 Norte 0 -- -- 30
2020-01-12 15:00:00 14.7 6 Oeste 13 Oeste 0 -- -- 39
2020-01-12 14:00:00 12.5 7 Oeste 13 Oeste 0 -- -- 44
2020-01-12 13:00:00 10.3 9 Oeste 15 Oeste 0 -- -- 48
2020-01-12 12:00:00 6.6 9 Oeste 16 Oeste 0 -- -- 63
2020-01-12 11:00:00 3.4 10 Oeste 15 Oeste 0 -- -- 76
2020-01-12 10:00:00 1 10 Oeste 14 Oeste 0 -- -- 83
2020-01-12 09:00:00 -0.3 11 Oeste 15 Oeste 0 -- -- 86
2020-01-12 08:00:00 0 10 Oeste 14 Oeste 0 -- -- 88
2020-01-12 07:00:00 0.1 8 Oeste 15 Oeste 0 -- -- 88
2020-01-12 06:00:00 0.3 9 Oeste 13 Oeste 0 -- -- 88
2020-01-12 05:00:00 1 10 Oeste 14 Oeste 0 -- -- 85
2020-01-12 04:00:00 1.9 9 Oeste 13 Oeste 0 -- -- 84
2020-01-12 03:00:00 1.7 6 Oeste 12 Oeste 0 -- -- 86
2020-01-12 02:00:00 2 4 Noroeste 10 Oeste 0 -- -- 87
2020-01-12 01:00:00 3.6 0 Calma 13 Oeste 0 -- -- 81
2020-01-12 00:00:00 4.7 7 Oeste 10 Oeste 0 -- -- 78
2020-01-11 23:00:00 5.2 4 Oeste 9 Oeste 0 -- -- 85
2020-01-11 22:00:00 6.5 0 Calma 9 Sudeste 0 -- -- 77
2020-01-11 21:00:00 9.1 6 Sudeste 18 Sudeste 0 -- -- 71
2020-01-11 20:00:00 9.6 9 Sudeste 22 Sudeste 0 -- -- 65
2020-01-11 19:00:00 9.3 0 Calma 8 Oeste 0 -- -- 51
2020-01-11 18:00:00 14.8 3 Oeste 13 Oeste 0 -- -- 40
2020-01-11 17:00:00 15.4 3 Noroeste 15 Norte 0 -- -- 39
2020-01-11 16:00:00 14.9 10 Oeste 19 Noroeste 0 -- -- 41
2020-01-11 15:00:00 14.1 11 Oeste 18 Oeste 0 -- -- 45
2020-01-11 14:00:00 13 12 Oeste 20 Oeste 0 -- -- 48
2020-01-11 13:00:00 11.2 13 Oeste 22 Oeste 0 -- -- 53
2020-01-11 12:00:00 9.7 15 Oeste 23 Oeste 0 -- -- 57
2020-01-11 11:00:00 7.4 14 Oeste 19 Oeste 0 -- -- 65
2020-01-11 10:00:00 6 13 Oeste 20 Oeste 0 -- -- 67
2020-01-11 09:00:00 5.2 7 Noroeste 19 Oeste 0 -- -- 69
2020-01-11 08:00:00 6.1 12 Oeste 18 Oeste 0 -- -- 67
2020-01-11 07:00:00 7 9 Noroeste 17 Oeste 0 -- -- 65
2020-01-11 06:00:00 7 10 Oeste 23 Oeste 0 -- -- 65
2020-01-11 05:00:00 6.9 17 Oeste 25 Noroeste 0 -- -- 67
2020-01-11 04:00:00 6.6 13 Oeste 21 Noroeste 0 -- -- 69
2020-01-11 03:00:00 6.9 13 Oeste 17 Noroeste 0 -- -- 68
2020-01-11 02:00:00 7 8 Noroeste 16 Oeste 0 -- -- 71
2020-01-11 01:00:00 7.8 9 Oeste 22 Oeste 0 -- -- 67
2020-01-11 00:00:00 8.7 11 Noroeste 21 Oeste 0 -- -- 65
2020-01-10 23:00:00 8.7 13 Oeste 22 Norte 0 -- -- 65
2020-01-10 22:00:00 9.5 9 Noroeste 21 Norte 0 -- -- 63
2020-01-10 21:00:00 9.4 11 Nordeste 34 Norte 0 -- -- 62
2020-01-10 20:00:00 10 18 Norte 33 Nordeste 0 -- -- 54
2020-01-10 19:00:00 10.5 3 Noroeste 15 Norte 0 -- -- 44
2020-01-10 18:00:00 14 10 Norte 26 Nordeste 0 -- -- 35
2020-01-10 17:00:00 15 14 Norte 29 Norte 0 -- -- 35
2020-01-10 16:00:00 15.1 11 Noroeste 28 Oeste 0 -- -- 39
2020-01-10 15:00:00 14 18 Oeste 30 Oeste 0 -- -- 46
2020-01-10 14:00:00 13.3 19 Noroeste 27 Oeste 0 -- -- 51
2020-01-10 13:00:00 12 14 Noroeste 23 Noroeste 0 -- -- 61
2020-01-10 12:00:00 8 9 Oeste 17 Oeste 0 -- -- 74
2020-01-10 11:00:00 4.8 14 Oeste 19 Oeste 0 -- -- 84
2020-01-10 10:00:00 3.4 12 Oeste 22 Oeste 0 -- -- 91
2020-01-10 09:00:00 3 11 Oeste 18 Oeste 0 -- -- 91
2020-01-10 08:00:00 3.2 7 Oeste 17 Oeste 0 -- -- 93
2020-01-10 07:00:00 3.4 10 Oeste 18 Oeste 0 -- -- 93
2020-01-10 06:00:00 3.6 14 Oeste 21 Oeste 0 -- -- 94
2020-01-10 05:00:00 4 11 Oeste 16 Oeste 0 -- -- 93
2020-01-10 04:00:00 4.4 9 Oeste 11 Oeste 0 -- -- 93
2020-01-10 03:00:00 5.2 7 Oeste 14 Oeste 0 -- -- 90
2020-01-10 02:00:00 5.2 11 Oeste 14 Oeste 0 -- -- 90
2020-01-10 01:00:00 5.9 4 Noroeste 11 Oeste 0 -- -- 88
2020-01-10 00:00:00 6.2 8 Oeste 10 Oeste 0 -- -- 88
2020-01-09 23:00:00 6.2 4 Este 12 Sudeste 0 -- -- 83
2020-01-09 22:00:00 8.3 9 Sudeste 12 Sudeste 0 -- -- 79
2020-01-09 21:00:00 7.5 4 Este 10 Sudeste 0 -- -- 77
2020-01-09 20:00:00 8.8 4 Sudeste 14 Sudeste 0 -- -- 70
2020-01-09 19:00:00 11 7 Sudeste 16 Sudeste 0 -- -- 62
2020-01-09 18:00:00 13.2 6 Sudeste 15 Este 0 -- -- 55
2020-01-09 17:00:00 14.4 4 Sudeste 9 Sudeste 0 -- -- 52
2020-01-09 16:00:00 14.5 2 Noroeste 7 Noroeste 0 -- -- 52
2020-01-09 15:00:00 13.6 0 Calma 9 Oeste 0 -- -- 55
2020-01-09 14:00:00 11.9 6 Oeste 11 Oeste 0 -- -- 58
2020-01-09 13:00:00 10.6 8 Noroeste 14 Oeste 0 -- -- 65
2020-01-09 12:00:00 8.2 11 Oeste 16 Oeste 0 -- -- 72
2020-01-09 11:00:00 5.8 11 Oeste 14 Noroeste 0 -- -- 79
2020-01-09 10:00:00 3.8 9 Oeste 16 Oeste 0 -- -- 88
2020-01-09 09:00:00 3.6 12 Oeste 19 Oeste 0 -- -- 88
2020-01-09 08:00:00 3.9 11 Oeste 17 Oeste 0 -- -- 88
2020-01-09 07:00:00 4.3 12 Oeste 17 Oeste 0 -- -- 89
2020-01-09 06:00:00 3.8 11 Oeste 14 Oeste 0 -- -- 89
2020-01-09 05:00:00 3.5 9 Oeste 13 Oeste 0 -- -- 90
2020-01-09 04:00:00 3.5 9 Oeste 12 Oeste 0 -- -- 89
2020-01-09 03:00:00 3.2 8 Oeste 11 Oeste 0 -- -- 91
2020-01-09 02:00:00 3.9 4 Oeste 9 Noroeste 0 -- -- 90
2020-01-09 01:00:00 5.4 5 Oeste 8 Oeste 0 -- -- 93
2020-01-09 00:00:00 5.6 0 Calma -- -- 0 -- -- 91
2020-01-08 23:00:00 4.8 0 Calma 3 Sudeste 0 -- -- 90
2020-01-08 22:00:00 6.1 3 Sudeste 9 Este 0 -- -- 89
2020-01-08 21:00:00 7.7 5 Sudeste 8 Sudeste 0 -- -- 88
2020-01-08 20:00:00 9.1 0 Calma 14 Sudeste 0 -- -- 79
2020-01-08 19:00:00 11 12 Sudeste 18 Sudeste 0 -- -- 75
2020-01-08 18:00:00 12.5 13 Sudeste 23 Sudeste 0 -- -- 67
2020-01-08 17:00:00 13.4 19 Sudeste 29 Sudeste 0 -- -- 54
2020-01-08 16:00:00 14.6 16 Sudeste 27 Sudeste 0 -- -- 50
2020-01-08 15:00:00 14.7 14 Sudeste 22 Sudeste 0 -- -- 44
2020-01-08 14:00:00 14.5 5 Sudeste 11 Este 0 -- -- 39
2020-01-08 13:00:00 11.2 5 Oeste 11 Oeste 0 -- -- 45
2020-01-08 12:00:00 7.6 8 Oeste 21 Oeste 0 -- -- 58
2020-01-08 11:00:00 4.4 14 Oeste 21 Oeste 0 -- -- 72
2020-01-08 10:00:00 1.6 10 Oeste 17 Oeste 0 -- -- 83
2020-01-08 09:00:00 0.3 9 Oeste 12 Oeste 0 -- -- 88
2020-01-08 08:00:00 0 8 Oeste 17 Oeste 0 -- -- 88
2020-01-08 07:00:00 1.8 14 Oeste 19 Oeste 0 -- -- 84
2020-01-08 06:00:00 1.3 15 Oeste 19 Oeste 0 -- -- 88
2020-01-08 05:00:00 1.8 11 Oeste 15 Oeste 0 -- -- 86
2020-01-08 04:00:00 2.4 12 Oeste 17 Oeste 0 -- -- 84
2020-01-08 03:00:00 2.7 12 Oeste 18 Oeste 0 -- -- 85
2020-01-08 02:00:00 2.7 11 Oeste 15 Oeste 0 -- -- 86
2020-01-08 01:00:00 3.1 10 Oeste 15 Oeste 0 -- -- 85
2020-01-08 00:00:00 3.9 9 Oeste 13 Oeste 0 -- -- 84
2020-01-07 23:00:00 4.1 8 Oeste 10 Oeste 0 -- -- 85
2020-01-07 22:00:00 4.1 0 Calma 6 Oeste 0 -- -- 79
2020-01-07 21:00:00 5.7 0 Calma 6 Sudeste 0 -- -- 76
2020-01-07 20:00:00 7.4 2 Sudeste 9 Sudeste 0 -- -- 67
2020-01-07 19:00:00 10 6 Sudeste 15 Sudeste 0 -- -- 56
2020-01-07 18:00:00 12.8 11 Sudeste 18 Sudeste 0 -- -- 47
2020-01-07 17:00:00 14.5 11 Sudeste 15 Sudeste 0 -- -- 44
2020-01-07 16:00:00 15.7 4 Sudeste 9 Sudeste 0 -- -- 40
2020-01-07 15:00:00 14.1 0 Calma 8 Noroeste 0 -- -- 42
2020-01-07 14:00:00 11.9 3 Noroeste 9 Noroeste 0 -- -- 45
2020-01-07 13:00:00 9.1 4 Oeste 11 Oeste 0 -- -- 53
2020-01-07 12:00:00 6 7 Oeste 13 Oeste 0 -- -- 67
2020-01-07 11:00:00 2.2 7 Oeste 10 Oeste 0 -- -- 83
2020-01-07 10:00:00 0.4 8 Oeste 12 Oeste 0 -- -- 89
2020-01-07 09:00:00 -0.6 5 Oeste 10 Oeste 0 -- -- 91
2020-01-07 08:00:00 -0.3 2 Oeste 9 Oeste 0 -- -- 90
2020-01-07 07:00:00 0.4 4 Oeste 15 Oeste 0 -- -- 89
2020-01-07 06:00:00 0.7 10 Oeste 14 Oeste 0 -- -- 90
2020-01-07 05:00:00 1 10 Oeste 16 Oeste 0 -- -- 90
2020-01-07 04:00:00 1.4 9 Oeste 14 Oeste 0 -- -- 88
2020-01-07 03:00:00 2.3 8 Oeste 14 Oeste 0 -- -- 85
2020-01-07 02:00:00 2.8 10 Oeste 14 Oeste 0 -- -- 85
2020-01-07 01:00:00 3.3 10 Oeste 14 Oeste 0 -- -- 84
2020-01-07 00:00:00 4.4 9 Oeste 13 Oeste 0 -- -- 82
2020-01-06 23:00:00 4.7 9 Oeste 12 Oeste 0 -- -- 81
2020-01-06 22:00:00 4.2 4 Oeste 8 Oeste 0 -- -- 81
2020-01-06 21:00:00 6.5 4 Oeste 8 Oeste 0 -- -- 72
2020-01-06 20:00:00 6.6 3 Sur 8 Sudeste 0 -- -- 69
2020-01-06 19:00:00 10 5 Sudeste 14 Sudeste 0 -- -- 53
2020-01-06 18:00:00 12.9 10 Sudeste 18 Sudeste 0 -- -- 46
2020-01-06 17:00:00 13.9 11 Sudeste 18 Sudeste 0 -- -- 42
2020-01-06 16:00:00 14.6 9 Sudeste 16 Sudeste 0 -- -- 42
2020-01-06 15:00:00 13 0 Calma 7 Noroeste 0 -- -- 49
2020-01-06 14:00:00 10.8 4 Oeste 12 Oeste 0 -- -- 53
2020-01-06 13:00:00 7.8 9 Oeste 16 Oeste 0 -- -- 65
2020-01-06 12:00:00 5.6 9 Oeste 14 Oeste 0 -- -- 74
2020-01-06 11:00:00 2.4 9 Oeste 16 Oeste 0 -- -- 85
2020-01-06 10:00:00 0.4 10 Oeste 17 Oeste 0 -- -- 91